sensor_id;sensor_type;location;lat;lon;timestamp;P1;durP1;ratioP1;P2;durP2;ratioP2
35907;SDS011;22003;50.320;8.054;2023-12-20T00:01:46;1.73;;;0.77;;
35907;SDS011;22003;50.320;8.054;2023-12-20T00:04:11;0.70;;;0.47;;
35907;SDS011;22003;50.320;8.054;2023-12-20T00:06:36;1.10;;;0.73;;
35907;SDS011;22003;50.320;8.054;2023-12-20T00:09:02;6.72;;;0.77;;
35907;SDS011;22003;50.320;8.054;2023-12-20T00:11:27;1.75;;;0.88;;
35907;SDS011;22003;50.320;8.054;2023-12-20T00:13:52;0.95;;;0.60;;
35907;SDS011;22003;50.320;8.054;2023-12-20T00:16:18;1.77;;;0.77;;
35907;SDS011;22003;50.320;8.054;2023-12-20T00:18:43;1.95;;;1.02;;
35907;SDS011;22003;50.320;8.054;2023-12-20T00:21:08;1.48;;;0.80;;
35907;SDS011;22003;50.320;8.054;2023-12-20T00:23:33;2.38;;;1.00;;
35907;SDS011;22003;50.320;8.054;2023-12-20T00:25:59;3.65;;;1.15;;
35907;SDS011;22003;50.320;8.054;2023-12-20T00:28:24;2.63;;;0.95;;
35907;SDS011;22003;50.320;8.054;2023-12-20T00:30:49;4.78;;;1.45;;
35907;SDS011;22003;50.320;8.054;2023-12-20T00:33:14;2.97;;;1.00;;
35907;SDS011;22003;50.320;8.054;2023-12-20T00:35:40;1.10;;;0.80;;
35907;SDS011;22003;50.320;8.054;2023-12-20T00:38:06;2.45;;;0.85;;
35907;SDS011;22003;50.320;8.054;2023-12-20T00:40:32;1.50;;;0.95;;
35907;SDS011;22003;50.320;8.054;2023-12-20T00:42:58;1.65;;;1.10;;
35907;SDS011;22003;50.320;8.054;2023-12-20T00:45:23;1.85;;;0.80;;
35907;SDS011;22003;50.320;8.054;2023-12-20T00:47:48;1.85;;;0.95;;
35907;SDS011;22003;50.320;8.054;2023-12-20T00:50:13;1.88;;;1.15;;
35907;SDS011;22003;50.320;8.054;2023-12-20T00:52:39;0.95;;;0.60;;
35907;SDS011;22003;50.320;8.054;2023-12-20T00:55:04;1.15;;;0.50;;
35907;SDS011;22003;50.320;8.054;2023-12-20T00:57:30;1.50;;;0.88;;
35907;SDS011;22003;50.320;8.054;2023-12-20T00:59:56;1.77;;;0.90;;
35907;SDS011;22003;50.320;8.054;2023-12-20T01:02:21;1.58;;;0.80;;
35907;SDS011;22003;50.320;8.054;2023-12-20T01:04:46;1.05;;;0.65;;
35907;SDS011;22003;50.320;8.054;2023-12-20T01:07:11;2.17;;;0.90;;
35907;SDS011;22003;50.320;8.054;2023-12-20T01:09:37;1.90;;;1.10;;
35907;SDS011;22003;50.320;8.054;2023-12-20T01:12:02;3.10;;;1.10;;
35907;SDS011;22003;50.320;8.054;2023-12-20T01:14:28;1.45;;;0.80;;
35907;SDS011;22003;50.320;8.054;2023-12-20T01:16:53;2.45;;;0.95;;
35907;SDS011;22003;50.320;8.054;2023-12-20T01:19:18;0.90;;;0.60;;
35907;SDS011;22003;50.320;8.054;2023-12-20T01:21:43;2.08;;;1.20;;
35907;SDS011;22003;50.320;8.054;2023-12-20T01:24:09;1.85;;;1.17;;
35907;SDS011;22003;50.320;8.054;2023-12-20T01:26:34;2.85;;;0.90;;
35907;SDS011;22003;50.320;8.054;2023-12-20T01:28:59;1.48;;;0.82;;
35907;SDS011;22003;50.320;8.054;2023-12-20T01:31:24;1.15;;;0.70;;
35907;SDS011;22003;50.320;8.054;2023-12-20T01:33:52;1.30;;;1.00;;
35907;SDS011;22003;50.320;8.054;2023-12-20T01:36:17;1.33;;;1.10;;
35907;SDS011;22003;50.320;8.054;2023-12-20T01:38:42;1.63;;;0.95;;
35907;SDS011;22003;50.320;8.054;2023-12-20T01:41:08;3.72;;;0.93;;
35907;SDS011;22003;50.320;8.054;2023-12-20T01:43:33;2.08;;;0.90;;
35907;SDS011;22003;50.320;8.054;2023-12-20T01:45:58;1.13;;;0.82;;
35907;SDS011;22003;50.320;8.054;2023-12-20T01:48:24;1.48;;;1.00;;
35907;SDS011;22003;50.320;8.054;2023-12-20T01:50:51;0.73;;;0.73;;
35907;SDS011;22003;50.320;8.054;2023-12-20T01:53:16;1.48;;;0.80;;
35907;SDS011;22003;50.320;8.054;2023-12-20T01:55:45;0.90;;;0.80;;
35907;SDS011;22003;50.320;8.054;2023-12-20T01:58:11;2.47;;;1.00;;
35907;SDS011;22003;50.320;8.054;2023-12-20T02:00:38;1.95;;;1.23;;
35907;SDS011;22003;50.320;8.054;2023-12-20T02:03:03;2.35;;;0.85;;
35907;SDS011;22003;50.320;8.054;2023-12-20T02:05:29;0.80;;;0.80;;
35907;SDS011;22003;50.320;8.054;2023-12-20T02:07:55;0.85;;;0.80;;
35907;SDS011;22003;50.320;8.054;2023-12-20T02:10:21;0.93;;;0.80;;
35907;SDS011;22003;50.320;8.054;2023-12-20T02:12:46;2.22;;;0.85;;
35907;SDS011;22003;50.320;8.054;2023-12-20T02:15:11;2.20;;;0.80;;
35907;SDS011;22003;50.320;8.054;2023-12-20T02:17:37;0.95;;;0.75;;
35907;SDS011;22003;50.320;8.054;2023-12-20T02:20:04;2.55;;;0.90;;
35907;SDS011;22003;50.320;8.054;2023-12-20T02:22:30;0.85;;;0.60;;
35907;SDS011;22003;50.320;8.054;2023-12-20T02:24:56;1.45;;;1.00;;
35907;SDS011;22003;50.320;8.054;2023-12-20T02:27:21;0.82;;;0.80;;
35907;SDS011;22003;50.320;8.054;2023-12-20T02:29:47;1.23;;;0.90;;
35907;SDS011;22003;50.320;8.054;2023-12-20T02:32:13;1.10;;;0.68;;
35907;SDS011;22003;50.320;8.054;2023-12-20T02:34:38;1.58;;;1.00;;
35907;SDS011;22003;50.320;8.054;2023-12-20T02:37:04;0.98;;;0.77;;
35907;SDS011;22003;50.320;8.054;2023-12-20T02:39:29;0.85;;;0.70;;
35907;SDS011;22003;50.320;8.054;2023-12-20T02:41:55;1.30;;;0.80;;
35907;SDS011;22003;50.320;8.054;2023-12-20T02:44:20;2.22;;;0.90;;
35907;SDS011;22003;50.320;8.054;2023-12-20T02:46:45;1.30;;;0.80;;
35907;SDS011;22003;50.320;8.054;2023-12-20T02:49:11;1.75;;;0.95;;
35907;SDS011;22003;50.320;8.054;2023-12-20T02:51:36;1.58;;;1.25;;
35907;SDS011;22003;50.320;8.054;2023-12-20T02:54:03;0.88;;;0.88;;
35907;SDS011;22003;50.320;8.054;2023-12-20T02:56:29;2.15;;;0.90;;
35907;SDS011;22003;50.320;8.054;2023-12-20T02:58:54;1.80;;;1.15;;
35907;SDS011;22003;50.320;8.054;2023-12-20T03:01:19;1.60;;;1.02;;
35907;SDS011;22003;50.320;8.054;2023-12-20T03:03:45;1.17;;;1.00;;
35907;SDS011;22003;50.320;8.054;2023-12-20T03:06:10;1.48;;;1.00;;
35907;SDS011;22003;50.320;8.054;2023-12-20T03:08:35;0.70;;;0.70;;
35907;SDS011;22003;50.320;8.054;2023-12-20T03:11:00;3.42;;;0.80;;
35907;SDS011;22003;50.320;8.054;2023-12-20T03:13:26;1.10;;;0.80;;
35907;SDS011;22003;50.320;8.054;2023-12-20T03:15:51;1.52;;;1.00;;
35907;SDS011;22003;50.320;8.054;2023-12-20T03:18:16;1.77;;;1.20;;
35907;SDS011;22003;50.320;8.054;2023-12-20T03:20:43;0.90;;;0.65;;
35907;SDS011;22003;50.320;8.054;2023-12-20T03:23:08;0.75;;;0.60;;
35907;SDS011;22003;50.320;8.054;2023-12-20T03:25:33;1.00;;;0.70;;
35907;SDS011;22003;50.320;8.054;2023-12-20T03:27:58;0.73;;;0.60;;
35907;SDS011;22003;50.320;8.054;2023-12-20T03:30:24;0.70;;;0.68;;
35907;SDS011;22003;50.320;8.054;2023-12-20T03:32:49;4.30;;;1.75;;
35907;SDS011;22003;50.320;8.054;2023-12-20T03:35:14;2.60;;;1.40;;
35907;SDS011;22003;50.320;8.054;2023-12-20T03:37:40;4.15;;;2.00;;
35907;SDS011;22003;50.320;8.054;2023-12-20T03:40:05;3.10;;;1.55;;
35907;SDS011;22003;50.320;8.054;2023-12-20T03:42:31;3.35;;;1.70;;
35907;SDS011;22003;50.320;8.054;2023-12-20T03:44:56;2.90;;;1.80;;
35907;SDS011;22003;50.320;8.054;2023-12-20T03:47:21;4.13;;;2.05;;
35907;SDS011;22003;50.320;8.054;2023-12-20T03:49:46;5.95;;;3.00;;
35907;SDS011;22003;50.320;8.054;2023-12-20T03:52:12;3.05;;;2.75;;
35907;SDS011;22003;50.320;8.054;2023-12-20T03:54:37;5.90;;;4.07;;
35907;SDS011;22003;50.320;8.054;2023-12-20T03:57:02;12.60;;;4.43;;
35907;SDS011;22003;50.320;8.054;2023-12-20T03:59:28;6.50;;;3.40;;
35907;SDS011;22003;50.320;8.054;2023-12-20T04:01:53;5.95;;;4.55;;
35907;SDS011;22003;50.320;8.054;2023-12-20T04:04:18;8.18;;;4.25;;
35907;SDS011;22003;50.320;8.054;2023-12-20T04:06:44;4.63;;;2.85;;
35907;SDS011;22003;50.320;8.054;2023-12-20T04:09:09;9.40;;;4.38;;
35907;SDS011;22003;50.320;8.054;2023-12-20T04:11:34;9.88;;;3.10;;
35907;SDS011;22003;50.320;8.054;2023-12-20T04:14:00;4.53;;;2.42;;
35907;SDS011;22003;50.320;8.054;2023-12-20T04:16:25;12.73;;;2.65;;
35907;SDS011;22003;50.320;8.054;2023-12-20T04:18:51;8.88;;;3.10;;
35907;SDS011;22003;50.320;8.054;2023-12-20T04:21:16;16.85;;;3.72;;
35907;SDS011;22003;50.320;8.054;2023-12-20T04:23:41;8.88;;;2.30;;
35907;SDS011;22003;50.320;8.054;2023-12-20T04:26:06;7.88;;;2.50;;
35907;SDS011;22003;50.320;8.054;2023-12-20T04:28:32;8.95;;;3.45;;
35907;SDS011;22003;50.320;8.054;2023-12-20T04:30:57;4.80;;;1.63;;
35907;SDS011;22003;50.320;8.054;2023-12-20T04:33:22;10.55;;;2.95;;
35907;SDS011;22003;50.320;8.054;2023-12-20T04:35:47;8.45;;;2.15;;
35907;SDS011;22003;50.320;8.054;2023-12-20T04:38:13;6.53;;;2.03;;
35907;SDS011;22003;50.320;8.054;2023-12-20T04:40:38;9.40;;;2.28;;
35907;SDS011;22003;50.320;8.054;2023-12-20T04:43:05;8.32;;;2.13;;
35907;SDS011;22003;50.320;8.054;2023-12-20T04:45:31;6.88;;;1.80;;
35907;SDS011;22003;50.320;8.054;2023-12-20T04:47:56;5.65;;;1.60;;
35907;SDS011;22003;50.320;8.054;2023-12-20T04:50:21;11.57;;;2.33;;
35907;SDS011;22003;50.320;8.054;2023-12-20T04:52:46;12.48;;;3.25;;
35907;SDS011;22003;50.320;8.054;2023-12-20T04:55:12;6.55;;;2.50;;
35907;SDS011;22003;50.320;8.054;2023-12-20T04:57:37;11.20;;;2.72;;
35907;SDS011;22003;50.320;8.054;2023-12-20T05:00:02;5.70;;;1.73;;
35907;SDS011;22003;50.320;8.054;2023-12-20T05:02:28;6.88;;;2.13;;
35907;SDS011;22003;50.320;8.054;2023-12-20T05:04:53;7.35;;;1.58;;
35907;SDS011;22003;50.320;8.054;2023-12-20T05:07:18;10.57;;;2.88;;
35907;SDS011;22003;50.320;8.054;2023-12-20T05:09:44;4.93;;;1.35;;
35907;SDS011;22003;50.320;8.054;2023-12-20T05:12:09;8.93;;;1.83;;
35907;SDS011;22003;50.320;8.054;2023-12-20T05:14:34;14.57;;;3.42;;
35907;SDS011;22003;50.320;8.054;2023-12-20T05:16:59;10.10;;;3.60;;
35907;SDS011;22003;50.320;8.054;2023-12-20T05:19:25;14.80;;;3.83;;
35907;SDS011;22003;50.320;8.054;2023-12-20T05:21:50;12.45;;;2.85;;
35907;SDS011;22003;50.320;8.054;2023-12-20T05:24:16;6.10;;;1.30;;
35907;SDS011;22003;50.320;8.054;2023-12-20T05:26:41;8.05;;;1.60;;
35907;SDS011;22003;50.320;8.054;2023-12-20T05:29:06;9.25;;;1.73;;
35907;SDS011;22003;50.320;8.054;2023-12-20T05:31:31;10.85;;;2.40;;
35907;SDS011;22003;50.320;8.054;2023-12-20T05:33:57;6.32;;;1.73;;
35907;SDS011;22003;50.320;8.054;2023-12-20T05:36:22;5.63;;;1.92;;
35907;SDS011;22003;50.320;8.054;2023-12-20T05:38:48;8.18;;;2.15;;
35907;SDS011;22003;50.320;8.054;2023-12-20T05:41:13;18.48;;;4.75;;
35907;SDS011;22003;50.320;8.054;2023-12-20T05:43:39;8.98;;;2.10;;
35907;SDS011;22003;50.320;8.054;2023-12-20T05:46:04;5.45;;;1.80;;
35907;SDS011;22003;50.320;8.054;2023-12-20T05:48:30;4.85;;;1.67;;
35907;SDS011;22003;50.320;8.054;2023-12-20T05:50:55;6.68;;;1.60;;
35907;SDS011;22003;50.320;8.054;2023-12-20T05:53:20;6.57;;;2.17;;
35907;SDS011;22003;50.320;8.054;2023-12-20T05:55:45;14.27;;;2.20;;
35907;SDS011;22003;50.320;8.054;2023-12-20T05:58:11;10.57;;;1.95;;
35907;SDS011;22003;50.320;8.054;2023-12-20T06:00:36;7.05;;;1.88;;
35907;SDS011;22003;50.320;8.054;2023-12-20T06:03:01;8.27;;;1.55;;
35907;SDS011;22003;50.320;8.054;2023-12-20T06:05:27;9.10;;;1.98;;
35907;SDS011;22003;50.320;8.054;2023-12-20T06:07:52;11.27;;;2.30;;
35907;SDS011;22003;50.320;8.054;2023-12-20T06:10:17;6.80;;;1.85;;
35907;SDS011;22003;50.320;8.054;2023-12-20T06:12:42;7.80;;;2.35;;
35907;SDS011;22003;50.320;8.054;2023-12-20T06:15:08;12.82;;;2.58;;
35907;SDS011;22003;50.320;8.054;2023-12-20T06:17:33;11.88;;;2.40;;
35907;SDS011;22003;50.320;8.054;2023-12-20T06:20:00;13.38;;;1.88;;
35907;SDS011;22003;50.320;8.054;2023-12-20T06:22:25;6.32;;;1.90;;
35907;SDS011;22003;50.320;8.054;2023-12-20T06:24:50;7.55;;;3.30;;
35907;SDS011;22003;50.320;8.054;2023-12-20T06:27:15;6.13;;;2.15;;
35907;SDS011;22003;50.320;8.054;2023-12-20T06:29:41;11.52;;;3.08;;
35907;SDS011;22003;50.320;8.054;2023-12-20T06:32:07;10.90;;;3.13;;
35907;SDS011;22003;50.320;8.054;2023-12-20T06:34:32;11.27;;;2.63;;
35907;SDS011;22003;50.320;8.054;2023-12-20T06:36:58;8.07;;;2.97;;
35907;SDS011;22003;50.320;8.054;2023-12-20T06:39:23;7.13;;;2.35;;
35907;SDS011;22003;50.320;8.054;2023-12-20T06:41:48;12.80;;;3.50;;
35907;SDS011;22003;50.320;8.054;2023-12-20T06:44:13;13.88;;;2.40;;
35907;SDS011;22003;50.320;8.054;2023-12-20T06:46:39;11.50;;;3.42;;
35907;SDS011;22003;50.320;8.054;2023-12-20T06:49:04;13.10;;;4.13;;
35907;SDS011;22003;50.320;8.054;2023-12-20T06:51:30;11.48;;;3.58;;
35907;SDS011;22003;50.320;8.054;2023-12-20T06:53:55;10.57;;;3.05;;
35907;SDS011;22003;50.320;8.054;2023-12-20T06:56:21;10.23;;;2.90;;
35907;SDS011;22003;50.320;8.054;2023-12-20T06:58:47;10.98;;;2.85;;
35907;SDS011;22003;50.320;8.054;2023-12-20T07:01:13;12.70;;;4.28;;
35907;SDS011;22003;50.320;8.054;2023-12-20T07:03:39;7.55;;;3.78;;
35907;SDS011;22003;50.320;8.054;2023-12-20T07:06:05;6.03;;;2.03;;
35907;SDS011;22003;50.320;8.054;2023-12-20T07:08:30;10.35;;;2.30;;
35907;SDS011;22003;50.320;8.054;2023-12-20T07:10:55;9.05;;;2.20;;
35907;SDS011;22003;50.320;8.054;2023-12-20T07:13:20;16.52;;;2.88;;
35907;SDS011;22003;50.320;8.054;2023-12-20T07:15:47;12.80;;;2.63;;
35907;SDS011;22003;50.320;8.054;2023-12-20T07:18:12;10.25;;;2.65;;
35907;SDS011;22003;50.320;8.054;2023-12-20T07:20:38;10.95;;;3.50;;
35907;SDS011;22003;50.320;8.054;2023-12-20T07:23:04;10.82;;;2.30;;
35907;SDS011;22003;50.320;8.054;2023-12-20T07:25:29;11.63;;;2.72;;
35907;SDS011;22003;50.320;8.054;2023-12-20T07:27:57;6.65;;;3.17;;
35907;SDS011;22003;50.320;8.054;2023-12-20T07:30:22;13.10;;;2.40;;
35907;SDS011;22003;50.320;8.054;2023-12-20T07:32:47;11.05;;;2.35;;
35907;SDS011;22003;50.320;8.054;2023-12-20T07:35:13;15.90;;;2.72;;
35907;SDS011;22003;50.320;8.054;2023-12-20T07:37:40;17.02;;;3.92;;
35907;SDS011;22003;50.320;8.054;2023-12-20T07:40:05;14.07;;;3.22;;
35907;SDS011;22003;50.320;8.054;2023-12-20T07:42:31;13.60;;;3.42;;
35907;SDS011;22003;50.320;8.054;2023-12-20T07:44:56;12.50;;;2.58;;
35907;SDS011;22003;50.320;8.054;2023-12-20T07:47:22;11.65;;;2.45;;
35907;SDS011;22003;50.320;8.054;2023-12-20T07:49:48;7.60;;;2.00;;
35907;SDS011;22003;50.320;8.054;2023-12-20T07:52:14;10.17;;;2.63;;
35907;SDS011;22003;50.320;8.054;2023-12-20T07:54:39;13.10;;;3.22;;
35907;SDS011;22003;50.320;8.054;2023-12-20T07:57:05;11.23;;;2.88;;
35907;SDS011;22003;50.320;8.054;2023-12-20T07:59:30;8.05;;;2.90;;
35907;SDS011;22003;50.320;8.054;2023-12-20T08:01:56;19.38;;;4.57;;
35907;SDS011;22003;50.320;8.054;2023-12-20T08:04:21;11.95;;;3.95;;
35907;SDS011;22003;50.320;8.054;2023-12-20T08:06:47;11.63;;;2.67;;
35907;SDS011;22003;50.320;8.054;2023-12-20T08:09:12;13.13;;;3.15;;
35907;SDS011;22003;50.320;8.054;2023-12-20T08:11:37;13.68;;;3.25;;
35907;SDS011;22003;50.320;8.054;2023-12-20T08:14:03;14.73;;;4.32;;
35907;SDS011;22003;50.320;8.054;2023-12-20T08:16:28;14.73;;;4.45;;
35907;SDS011;22003;50.320;8.054;2023-12-20T08:18:53;9.63;;;2.95;;
35907;SDS011;22003;50.320;8.054;2023-12-20T08:21:18;8.95;;;2.83;;
35907;SDS011;22003;50.320;8.054;2023-12-20T08:23:45;15.25;;;3.55;;
35907;SDS011;22003;50.320;8.054;2023-12-20T08:26:11;12.98;;;4.82;;
35907;SDS011;22003;50.320;8.054;2023-12-20T08:28:36;11.18;;;2.20;;
35907;SDS011;22003;50.320;8.054;2023-12-20T08:31:02;13.38;;;3.28;;
35907;SDS011;22003;50.320;8.054;2023-12-20T08:33:27;7.00;;;1.58;;
35907;SDS011;22003;50.320;8.054;2023-12-20T08:35:52;10.48;;;2.63;;
35907;SDS011;22003;50.320;8.054;2023-12-20T08:38:18;8.50;;;2.40;;
35907;SDS011;22003;50.320;8.054;2023-12-20T08:40:43;13.85;;;2.60;;
35907;SDS011;22003;50.320;8.054;2023-12-20T08:43:09;7.85;;;2.25;;
35907;SDS011;22003;50.320;8.054;2023-12-20T08:45:34;6.55;;;2.03;;
35907;SDS011;22003;50.320;8.054;2023-12-20T08:48:00;6.63;;;2.55;;
35907;SDS011;22003;50.320;8.054;2023-12-20T08:50:25;12.27;;;2.20;;
35907;SDS011;22003;50.320;8.054;2023-12-20T08:52:50;11.55;;;1.90;;
35907;SDS011;22003;50.320;8.054;2023-12-20T08:55:16;11.90;;;4.03;;
35907;SDS011;22003;50.320;8.054;2023-12-20T09:01:04;12.18;;;2.58;;
35907;SDS011;22003;50.320;8.054;2023-12-20T09:03:30;11.25;;;2.85;;
35907;SDS011;22003;50.320;8.054;2023-12-20T09:05:55;13.27;;;3.03;;
35907;SDS011;22003;50.320;8.054;2023-12-20T09:08:20;9.45;;;2.20;;
35907;SDS011;22003;50.320;8.054;2023-12-20T09:10:46;8.52;;;1.98;;
35907;SDS011;22003;50.320;8.054;2023-12-20T09:13:11;9.95;;;2.08;;
35907;SDS011;22003;50.320;8.054;2023-12-20T09:15:37;10.93;;;2.40;;
35907;SDS011;22003;50.320;8.054;2023-12-20T09:18:02;10.73;;;2.33;;
35907;SDS011;22003;50.320;8.054;2023-12-20T09:20:28;9.18;;;2.63;;
35907;SDS011;22003;50.320;8.054;2023-12-20T09:22:53;9.30;;;2.75;;
35907;SDS011;22003;50.320;8.054;2023-12-20T09:25:19;17.40;;;2.85;;
35907;SDS011;22003;50.320;8.054;2023-12-20T09:27:44;7.00;;;2.67;;
35907;SDS011;22003;50.320;8.054;2023-12-20T09:30:09;10.15;;;2.63;;
35907;SDS011;22003;50.320;8.054;2023-12-20T09:32:34;14.48;;;4.03;;
35907;SDS011;22003;50.320;8.054;2023-12-20T09:35:00;11.32;;;2.70;;
35907;SDS011;22003;50.320;8.054;2023-12-20T09:37:26;8.57;;;2.33;;
35907;SDS011;22003;50.320;8.054;2023-12-20T09:39:52;6.55;;;2.20;;
35907;SDS011;22003;50.320;8.054;2023-12-20T09:42:29;18.52;;;3.70;;
35907;SDS011;22003;50.320;8.054;2023-12-20T09:45:03;13.70;;;2.83;;
35907;SDS011;22003;50.320;8.054;2023-12-20T09:47:32;9.88;;;2.47;;
35907;SDS011;22003;50.320;8.054;2023-12-20T09:49:57;8.25;;;2.70;;
35907;SDS011;22003;50.320;8.054;2023-12-20T09:52:23;10.75;;;2.38;;
35907;SDS011;22003;50.320;8.054;2023-12-20T09:54:49;11.95;;;2.85;;
35907;SDS011;22003;50.320;8.054;2023-12-20T09:57:17;12.27;;;2.63;;
35907;SDS011;22003;50.320;8.054;2023-12-20T09:59:42;15.30;;;3.35;;
35907;SDS011;22003;50.320;8.054;2023-12-20T10:02:08;10.73;;;2.75;;
35907;SDS011;22003;50.320;8.054;2023-12-20T10:04:39;17.75;;;2.92;;
35907;SDS011;22003;50.320;8.054;2023-12-20T10:07:12;12.25;;;3.03;;
35907;SDS011;22003;50.320;8.054;2023-12-20T10:09:37;9.13;;;2.25;;
35907;SDS011;22003;50.320;8.054;2023-12-20T10:12:03;7.57;;;2.70;;
35907;SDS011;22003;50.320;8.054;2023-12-20T10:14:30;10.75;;;2.15;;
35907;SDS011;22003;50.320;8.054;2023-12-20T10:17:01;8.95;;;2.97;;
35907;SDS011;22003;50.320;8.054;2023-12-20T10:19:33;12.60;;;2.40;;
35907;SDS011;22003;50.320;8.054;2023-12-20T10:21:59;7.93;;;2.50;;
35907;SDS011;22003;50.320;8.054;2023-12-20T10:24:25;8.93;;;2.63;;
35907;SDS011;22003;50.320;8.054;2023-12-20T10:27:00;12.75;;;2.58;;
35907;SDS011;22003;50.320;8.054;2023-12-20T10:29:30;9.50;;;2.55;;
35907;SDS011;22003;50.320;8.054;2023-12-20T10:31:57;13.48;;;3.17;;
35907;SDS011;22003;50.320;8.054;2023-12-20T10:34:22;15.80;;;4.30;;
35907;SDS011;22003;50.320;8.054;2023-12-20T10:36:48;12.00;;;3.05;;
35907;SDS011;22003;50.320;8.054;2023-12-20T10:39:13;11.10;;;2.60;;
35907;SDS011;22003;50.320;8.054;2023-12-20T10:41:40;8.90;;;3.30;;
35907;SDS011;22003;50.320;8.054;2023-12-20T10:44:07;13.60;;;2.78;;
35907;SDS011;22003;50.320;8.054;2023-12-20T10:46:34;12.07;;;2.67;;
35907;SDS011;22003;50.320;8.054;2023-12-20T10:48:59;7.95;;;2.47;;
35907;SDS011;22003;50.320;8.054;2023-12-20T10:51:27;11.02;;;2.85;;
35907;SDS011;22003;50.320;8.054;2023-12-20T10:53:54;8.50;;;2.38;;
35907;SDS011;22003;50.320;8.054;2023-12-20T10:56:20;11.45;;;2.53;;
35907;SDS011;22003;50.320;8.054;2023-12-20T10:58:51;10.32;;;2.88;;
35907;SDS011;22003;50.320;8.054;2023-12-20T11:01:17;15.20;;;2.45;;
35907;SDS011;22003;50.320;8.054;2023-12-20T11:03:50;9.38;;;2.30;;
35907;SDS011;22003;50.320;8.054;2023-12-20T11:06:21;7.68;;;2.55;;
35907;SDS011;22003;50.320;8.054;2023-12-20T11:08:52;10.15;;;2.20;;
35907;SDS011;22003;50.320;8.054;2023-12-20T11:14:11;9.10;;;2.90;;
35907;SDS011;22003;50.320;8.054;2023-12-20T11:16:42;10.98;;;2.70;;
35907;SDS011;22003;50.320;8.054;2023-12-20T11:19:07;7.38;;;2.42;;
35907;SDS011;22003;50.320;8.054;2023-12-20T11:21:33;10.93;;;2.78;;
35907;SDS011;22003;50.320;8.054;2023-12-20T11:23:59;6.85;;;2.15;;
35907;SDS011;22003;50.320;8.054;2023-12-20T11:26:28;10.43;;;2.55;;
35907;SDS011;22003;50.320;8.054;2023-12-20T11:28:54;11.10;;;2.70;;
35907;SDS011;22003;50.320;8.054;2023-12-20T11:31:40;11.18;;;2.40;;
35907;SDS011;22003;50.320;8.054;2023-12-20T11:34:12;9.95;;;2.72;;
35907;SDS011;22003;50.320;8.054;2023-12-20T11:36:39;6.57;;;2.20;;
35907;SDS011;22003;50.320;8.054;2023-12-20T11:39:04;5.53;;;2.63;;
35907;SDS011;22003;50.320;8.054;2023-12-20T11:41:33;10.23;;;2.47;;
35907;SDS011;22003;50.320;8.054;2023-12-20T11:43:59;10.93;;;3.25;;
35907;SDS011;22003;50.320;8.054;2023-12-20T11:46:26;6.47;;;2.22;;
35907;SDS011;22003;50.320;8.054;2023-12-20T11:48:51;10.32;;;2.83;;
35907;SDS011;22003;50.320;8.054;2023-12-20T11:51:16;7.80;;;2.50;;
35907;SDS011;22003;50.320;8.054;2023-12-20T11:53:42;8.40;;;2.70;;
35907;SDS011;22003;50.320;8.054;2023-12-20T11:56:07;15.48;;;3.38;;
35907;SDS011;22003;50.320;8.054;2023-12-20T11:58:33;8.00;;;2.58;;
35907;SDS011;22003;50.320;8.054;2023-12-20T12:00:59;5.07;;;2.33;;
35907;SDS011;22003;50.320;8.054;2023-12-20T12:03:24;9.40;;;2.40;;
35907;SDS011;22003;50.320;8.054;2023-12-20T12:05:50;7.47;;;2.33;;
35907;SDS011;22003;50.320;8.054;2023-12-20T12:08:16;13.95;;;3.00;;
35907;SDS011;22003;50.320;8.054;2023-12-20T12:10:42;10.50;;;2.30;;
35907;SDS011;22003;50.320;8.054;2023-12-20T12:13:07;15.18;;;4.00;;
35907;SDS011;22003;50.320;8.054;2023-12-20T12:15:32;8.25;;;2.53;;
35907;SDS011;22003;50.320;8.054;2023-12-20T12:17:58;11.02;;;3.28;;
35907;SDS011;22003;50.320;8.054;2023-12-20T12:20:24;10.27;;;3.40;;
35907;SDS011;22003;50.320;8.054;2023-12-20T12:23:02;9.77;;;3.15;;
35907;SDS011;22003;50.320;8.054;2023-12-20T12:25:29;8.23;;;2.55;;
35907;SDS011;22003;50.320;8.054;2023-12-20T12:27:56;8.93;;;3.05;;
35907;SDS011;22003;50.320;8.054;2023-12-20T12:30:22;4.05;;;2.40;;
35907;SDS011;22003;50.320;8.054;2023-12-20T12:32:47;9.68;;;3.15;;
35907;SDS011;22003;50.320;8.054;2023-12-20T12:35:13;12.43;;;4.05;;
35907;SDS011;22003;50.320;8.054;2023-12-20T12:37:39;12.02;;;3.63;;
35907;SDS011;22003;50.320;8.054;2023-12-20T12:40:06;12.88;;;3.05;;
35907;SDS011;22003;50.320;8.054;2023-12-20T12:42:36;12.00;;;3.38;;
35907;SDS011;22003;50.320;8.054;2023-12-20T12:45:02;15.15;;;2.95;;
35907;SDS011;22003;50.320;8.054;2023-12-20T12:47:27;5.90;;;2.28;;
35907;SDS011;22003;50.320;8.054;2023-12-20T12:49:53;6.93;;;2.90;;
35907;SDS011;22003;50.320;8.054;2023-12-20T12:52:18;8.75;;;3.63;;
35907;SDS011;22003;50.320;8.054;2023-12-20T12:54:44;15.52;;;3.30;;
35907;SDS011;22003;50.320;8.054;2023-12-20T12:57:10;15.43;;;4.05;;
35907;SDS011;22003;50.320;8.054;2023-12-20T12:59:36;9.80;;;2.78;;
35907;SDS011;22003;50.320;8.054;2023-12-20T13:02:01;12.73;;;3.78;;
35907;SDS011;22003;50.320;8.054;2023-12-20T13:04:26;12.10;;;3.78;;
35907;SDS011;22003;50.320;8.054;2023-12-20T13:06:52;10.73;;;3.13;;
35907;SDS011;22003;50.320;8.054;2023-12-20T13:09:17;10.18;;;2.95;;
35907;SDS011;22003;50.320;8.054;2023-12-20T13:11:44;8.45;;;3.55;;
35907;SDS011;22003;50.320;8.054;2023-12-20T13:14:09;7.85;;;3.33;;
35907;SDS011;22003;50.320;8.054;2023-12-20T13:16:39;14.52;;;3.60;;
35907;SDS011;22003;50.320;8.054;2023-12-20T13:19:04;9.57;;;2.65;;
35907;SDS011;22003;50.320;8.054;2023-12-20T13:21:30;6.05;;;2.97;;
35907;SDS011;22003;50.320;8.054;2023-12-20T13:23:55;10.95;;;2.85;;
35907;SDS011;22003;50.320;8.054;2023-12-20T13:26:21;10.45;;;3.45;;
35907;SDS011;22003;50.320;8.054;2023-12-20T13:28:46;8.27;;;3.38;;
35907;SDS011;22003;50.320;8.054;2023-12-20T13:31:11;11.05;;;3.03;;
35907;SDS011;22003;50.320;8.054;2023-12-20T13:33:37;11.02;;;3.65;;
35907;SDS011;22003;50.320;8.054;2023-12-20T13:36:02;7.72;;;3.20;;
35907;SDS011;22003;50.320;8.054;2023-12-20T13:38:29;9.93;;;2.90;;
35907;SDS011;22003;50.320;8.054;2023-12-20T13:40:54;10.40;;;3.20;;
35907;SDS011;22003;50.320;8.054;2023-12-20T13:43:19;7.55;;;2.50;;
35907;SDS011;22003;50.320;8.054;2023-12-20T13:45:47;9.98;;;2.95;;
35907;SDS011;22003;50.320;8.054;2023-12-20T13:48:12;11.95;;;3.55;;
35907;SDS011;22003;50.320;8.054;2023-12-20T13:50:38;11.27;;;3.38;;
35907;SDS011;22003;50.320;8.054;2023-12-20T13:53:04;6.47;;;2.78;;
35907;SDS011;22003;50.320;8.054;2023-12-20T13:55:29;6.22;;;3.10;;
35907;SDS011;22003;50.320;8.054;2023-12-20T13:57:55;8.43;;;2.75;;
35907;SDS011;22003;50.320;8.054;2023-12-20T14:00:21;9.85;;;2.80;;
35907;SDS011;22003;50.320;8.054;2023-12-20T14:02:46;11.80;;;2.97;;
35907;SDS011;22003;50.320;8.054;2023-12-20T14:05:12;6.85;;;2.97;;
35907;SDS011;22003;50.320;8.054;2023-12-20T14:07:39;10.73;;;2.95;;
35907;SDS011;22003;50.320;8.054;2023-12-20T14:10:04;12.35;;;3.17;;
35907;SDS011;22003;50.320;8.054;2023-12-20T14:12:31;9.77;;;3.08;;
35907;SDS011;22003;50.320;8.054;2023-12-20T14:15:00;8.10;;;2.55;;
35907;SDS011;22003;50.320;8.054;2023-12-20T14:17:25;6.78;;;2.33;;
35907;SDS011;22003;50.320;8.054;2023-12-20T14:19:51;7.18;;;2.45;;
35907;SDS011;22003;50.320;8.054;2023-12-20T14:22:16;9.80;;;2.58;;
35907;SDS011;22003;50.320;8.054;2023-12-20T14:24:42;12.60;;;2.53;;
35907;SDS011;22003;50.320;8.054;2023-12-20T14:27:07;6.53;;;2.65;;
35907;SDS011;22003;50.320;8.054;2023-12-20T14:29:34;5.53;;;1.95;;
35907;SDS011;22003;50.320;8.054;2023-12-20T14:31:59;3.08;;;1.83;;
35907;SDS011;22003;50.320;8.054;2023-12-20T14:34:27;3.72;;;1.75;;
35907;SDS011;22003;50.320;8.054;2023-12-20T14:36:53;7.78;;;2.15;;
35907;SDS011;22003;50.320;8.054;2023-12-20T14:39:18;6.60;;;2.05;;
35907;SDS011;22003;50.320;8.054;2023-12-20T14:41:43;7.22;;;2.25;;